Time;durP1;ratioP1;P1;durP2;ratioP2;P2;SDS_P1;SDS_P2;PMS_P1;PMS_P2;Temp;Humidity;BMP_temperature;BMP_pressure;BME280_temperature;BME280_humidity;BME280_pressure;Samples;Min_cycle;Max_cycle;Signal;HPM_P1;HPM_P2
2021/01/06 00:02:38;;;;;;;21.83;15.10;;;;;;;;;;5122320;28;20418;-59
2021/01/06 00:05:37;;;;;;;19.07;15.47;;;;;;;;;;5105210;28;20034;-59
2021/01/06 00:08:16;;;;;;;13.23;11.43;;;;;;;;;;5122466;28;20479;-59
2021/01/06 00:11:23;;;;;;;;;;;;;;;;;;;;;
2021/01/06 00:13:53;;;;;;;22.13;14.23;;;;;;;;;;5052742;28;20118;-59
2021/01/06 00:16:31;;;;;;;21.37;15.47;;;;;;;;;;5121924;28;20032;-59
2021/01/06 00:19:00;;;;;;;19.60;15.20;;;;;;;;;;5120189;28;20031;-59
2021/01/06 00:21:29;;;;;;;21.37;14.50;;;;;;;;;;5121531;28;20032;-59
2021/01/06 00:24:20;;;;;;;18.37;14.73;;;;;;;;;;5111280;28;20031;-59
2021/01/06 00:27:02;;;;;;;;;;;;;;;;;;;;;
2021/01/06 00:29:41;;;;;;;17.97;13.27;;;;;;;;;;5122085;28;20439;-59
2021/01/06 00:32:27;;;;;;;21.97;14.77;;;;;;;;;;5102729;28;20050;-59
2021/01/06 00:38:12;;;;;;;16.97;13.10;;;;;;;;;;5105585;28;20077;-58
2021/01/06 00:40:41;;;;;;;18.33;13.97;;;;;;;;;;5122246;28;20015;-58
2021/01/06 00:43:23;;;;;;;18.57;14.20;;;;;;;;;;5122024;28;20458;-58
2021/01/06 00:46:00;;;;;;;16.57;13.20;;;;;;;;;;5122796;28;20034;-58
2021/01/06 00:54:34;;;;;;;;;;;;;;;;;;;;;
2021/01/06 00:57:36;;;;;;;;;;;;;;;;;;;;;
2021/01/06 01:03:00;;;;;;;19.20;13.10;;;;;;;;;;5033948;28;20041;-58
2021/01/06 01:05:45;;;;;;;18.50;13.67;;;;;;;;;;5096459;28;20464;-58
2021/01/06 01:08:44;;;;;;;22.53;12.53;;;;;;;;;;5083803;28;20020;-58
2021/01/06 01:11:28;;;;;;;17.07;12.90;;;;;;;;;;5102528;28;20411;-58
2021/01/06 01:17:10;;;;;;;;;;;;;;;;;;;;;
2021/01/06 01:19:52;;;;;;;16.07;13.83;;;;;;;;;;5101679;28;20446;-58
2021/01/06 01:25:40;;;;;;;18.43;12.60;;;;;;;;;;5020402;28;20076;-58
2021/01/06 01:28:27;;;;;;;17.27;13.70;;;;;;;;;;5019736;28;20030;-58
2021/01/06 01:31:24;;;;;;;21.77;13.43;;;;;;;;;;5073662;28;20058;-58
2021/01/06 01:34:03;;;;;;;18.43;11.30;;;;;;;;;;5101272;28;20024;-58
2021/01/06 01:36:44;;;;;;;17.30;12.77;;;;;;;;;;5083013;28;20044;-58
2021/01/06 01:39:19;;;;;;;18.57;14.33;;;;;;;;;;5080829;28;20105;-58
2021/01/06 01:42:14;;;;;;;;;;;;;;;;;;;;;
2021/01/06 01:45:03;;;;;;;18.93;12.80;;;;;;;;;;5100909;28;20192;-58
2021/01/06 01:47:53;;;;;;;19.00;13.33;;;;;;;;;;5101471;28;20024;-58
2021/01/06 01:50:26;;;;;;;16.43;12.87;;;;;;;;;;4998921;28;20042;-58
2021/01/06 01:53:06;;;;;;;20.97;14.70;;;;;;;;;;4999697;28;20050;-58
2021/01/06 01:55:51;;;;;;;17.05;12.57;;;;;;;;;;4999349;28;20111;-58
2021/01/06 01:58:31;;;;;;;18.20;12.47;;;;;;;;;;4998541;28;20054;-58
2021/01/06 02:03:58;;;;;;;19.55;12.60;;;;;;;;;;5120950;28;20085;-58
2021/01/06 02:06:55;;;;;;;17.17;13.47;;;;;;;;;;5120879;28;20019;-58
2021/01/06 02:09:46;;;;;;;15.67;12.37;;;;;;;;;;5103152;28;20027;-58
2021/01/06 02:15:50;;;;;;;12.88;11.02;;;;;;;;;;5058462;28;20068;-58
2021/01/06 02:18:35;;;;;;;15.43;12.33;;;;;;;;;;5058939;28;20032;-58
2021/01/06 02:21:13;;;;;;;17.90;12.40;;;;;;;;;;5057779;28;20048;-58
2021/01/06 02:23:53;;;;;;;16.77;12.40;;;;;;;;;;5091361;28;20100;-58
2021/01/06 02:26:29;;;;;;;13.13;10.83;;;;;;;;;;5120245;28;20028;-59
2021/01/06 02:29:08;;;;;;;21.80;14.40;;;;;;;;;;5085064;28;20433;-58
2021/01/06 02:31:56;;;;;;;18.10;14.87;;;;;;;;;;5118207;28;20079;-58
2021/01/06 02:34:59;;;;;;;17.07;13.87;;;;;;;;;;5120563;28;20027;-58
2021/01/06 02:37:40;;;;;;;24.37;14.00;;;;;;;;;;5021242;28;20475;-58
2021/01/06 02:40:25;;;;;;;17.73;13.47;;;;;;;;;;5038262;28;20037;-58
2021/01/06 02:43:03;;;;;;;18.47;12.03;;;;;;;;;;5038288;28;20095;-58
2021/01/06 02:45:41;;;;;;;16.30;12.50;;;;;;;;;;5038408;28;20037;-58
2021/01/06 02:48:17;;;;;;;19.33;13.87;;;;;;;;;;5037964;28;20076;-58
2021/01/06 02:50:53;;;;;;;14.67;10.67;;;;;;;;;;5037756;28;20033;-58
2021/01/06 02:53:23;;;;;;;14.93;12.43;;;;;;;;;;5021824;28;20037;-58
2021/01/06 02:56:09;;;;;;;14.87;11.17;;;;;;;;;;5036700;28;20386;-58
2021/01/06 03:01:47;;;;;;;15.83;13.63;;;;;;;;;;5112051;28;20117;-58
2021/01/06 03:10:16;;;;;;;16.38;12.38;;;;;;;;;;5113651;28;20039;-58
2021/01/06 03:13:07;;;;;;;14.48;12.43;;;;;;;;;;5078135;28;20050;-58
2021/01/06 03:16:02;;;;;;;15.70;11.40;;;;;;;;;;5061092;28;20032;-58
2021/01/06 03:18:37;;;;;;;18.60;11.23;;;;;;;;;;5077139;28;20040;-58
2021/01/06 03:21:24;;;;;;;11.67;10.17;;;;;;;;;;5077992;28;20099;-58
2021/01/06 03:24:23;;;;;;;11.40;9.23;;;;;;;;;;5077775;28;20410;-58
2021/01/06 03:27:28;;;;;;;13.00;9.97;;;;;;;;;;5078452;28;20044;-58
2021/01/06 03:30:16;;;;;;;13.03;10.17;;;;;;;;;;5037713;28;20041;-58
2021/01/06 03:32:51;;;;;;;11.93;10.20;;;;;;;;;;5006508;28;20057;-58
2021/01/06 03:35:26;;;;;;;14.07;8.90;;;;;;;;;;5021184;28;20041;-58
2021/01/06 03:38:20;;;;;;;10.40;9.30;;;;;;;;;;5041667;28;20029;-58
2021/01/06 03:41:07;;;;;;;10.40;8.80;;;;;;;;;;5046820;28;20082;-58
2021/01/06 03:44:03;;;;;;;;;;;;;;;;;;;;;
2021/01/06 03:50:11;;;;;;;13.50;9.97;;;;;;;;;;5108090;28;20027;-58
2021/01/06 03:53:03;;;;;;;10.23;8.37;;;;;;;;;;5124034;28;20380;-58
2021/01/06 03:55:52;;;;;;;12.57;8.80;;;;;;;;;;5124970;28;20035;-59
2021/01/06 04:02:02;;;;;;;14.27;10.20;;;;;;;;;;5101844;28;20121;-58
2021/01/06 04:04:43;;;;;;;14.70;11.07;;;;;;;;;;5122890;28;20048;-58
2021/01/06 04:07:28;;;;;;;12.10;10.05;;;;;;;;;;5105601;28;20040;-58
2021/01/06 04:10:14;;;;;;;17.70;11.50;;;;;;;;;;5105699;28;20370;-58
2021/01/06 04:13:13;;;;;;;13.83;10.47;;;;;;;;;;5123315;28;20036;-59
2021/01/06 04:16:07;;;;;;;13.03;9.43;;;;;;;;;;5104428;28;20031;-58
2021/01/06 04:18:46;;;;;;;16.17;12.50;;;;;;;;;;5104990;28;20024;-58
2021/01/06 04:21:45;;;;;;;;;;;;;;;;;;;;;
2021/01/06 04:24:26;;;;;;;11.67;8.90;;;;;;;;;;5122336;28;20118;-58
2021/01/06 04:27:01;;;;;;;12.50;8.87;;;;;;;;;;5123067;28;20045;-58
2021/01/06 04:29:47;;;;;;;;;;;;;;;;;;;;;
2021/01/06 04:32:45;;;;;;;14.83;11.17;;;;;;;;;;5075921;28;20123;-58
2021/01/06 04:35:31;;;;;;;12.70;11.03;;;;;;;;;;5075326;28;20529;-58
2021/01/06 04:41:25;;;;;;;15.50;10.13;;;;;;;;;;5031091;28;20048;-58
2021/01/06 04:47:39;;;;;;;11.93;8.57;;;;;;;;;;5116321;28;20157;-59
2021/01/06 04:50:38;;;;;;;11.10;10.00;;;;;;;;;;5117263;28;20457;-58
2021/01/06 04:53:55;;;;;;;14.57;9.80;;;;;;;;;;5098396;28;20032;-58
2021/01/06 04:56:40;;;;;;;16.20;10.83;;;;;;;;;;5110936;28;20040;-58
2021/01/06 04:59:41;;;;;;;;;;;;;;;;;;;;;
2021/01/06 05:05:53;;;;;;;;;;;;;;;;;;;;;
2021/01/06 05:08:28;;;;;;;12.27;9.93;;;;;;;;;;5109538;28;20095;-58
2021/01/06 05:11:23;;;;;;;12.70;8.20;;;;;;;;;;5117793;28;20028;-58
2021/01/06 05:14:16;;;;;;;13.63;11.60;;;;;;;;;;5117835;28;20528;-58
2021/01/06 05:17:05;;;;;;;9.90;8.90;;;;;;;;;;5086332;28;20047;-58
2021/01/06 05:22:42;;;;;;;12.87;9.33;;;;;;;;;;5119605;28;20491;-58
2021/01/06 05:25:29;;;;;;;14.57;11.63;;;;;;;;;;5099068;28;20023;-58
2021/01/06 05:28:11;;;;;;;19.40;11.77;;;;;;;;;;5112933;28;20036;-58
2021/01/06 05:30:41;;;;;;;14.63;11.27;;;;;;;;;;5071458;28;20504;-58
2021/01/06 05:33:20;;;;;;;13.40;9.37;;;;;;;;;;5080661;28;20477;-58
2021/01/06 05:36:14;;;;;;;14.00;10.50;;;;;;;;;;5116618;28;20038;-59
2021/01/06 05:38:49;;;;;;;15.63;11.67;;;;;;;;;;5115937;28;20024;-58
2021/01/06 05:41:46;;;;;;;16.30;11.13;;;;;;;;;;5116525;28;20028;-58
2021/01/06 05:48:28;;;;;;;;;;;;;;;;;;;;;
2021/01/06 05:51:12;;;;;;;14.00;10.27;;;;;;;;;;5081532;28;20038;-58
2021/01/06 05:54:07;;;;;;;16.07;11.10;;;;;;;;;;5098143;28;20454;-58
2021/01/06 05:56:48;;;;;;;14.50;9.57;;;;;;;;;;5115691;28;20027;-58
2021/01/06 05:59:45;;;;;;;;;;;;;;;;;;;;;
2021/01/06 06:02:42;;;;;;;14.37;11.03;;;;;;;;;;5105693;28;20036;-58
2021/01/06 06:08:22;;;;;;;;;;;;;;;;;;;;;
2021/01/06 06:11:06;;;;;;;13.57;10.93;;;;;;;;;;5116231;28;20532;-58
2021/01/06 06:13:54;;;;;;;15.30;12.10;;;;;;;;;;5097462;28;20477;-58
2021/01/06 06:16:48;;;;;;;16.77;11.10;;;;;;;;;;5115501;28;20024;-58
2021/01/06 06:19:19;;;;;;;15.43;11.47;;;;;;;;;;5115273;28;20027;-58
2021/01/06 06:21:59;;;;;;;18.77;10.33;;;;;;;;;;5116224;28;20042;-58
2021/01/06 06:27:56;;;;;;;12.87;9.93;;;;;;;;;;5093314;28;20407;-59
2021/01/06 06:30:40;;;;;;;12.53;9.50;;;;;;;;;;5094544;28;20067;-59
2021/01/06 06:33:36;;;;;;;13.70;11.40;;;;;;;;;;5114950;28;20110;-59
2021/01/06 06:36:20;;;;;;;13.23;10.00;;;;;;;;;;5114639;28;20023;-59
2021/01/06 06:38:54;;;;;;;13.57;11.43;;;;;;;;;;5115194;28;20019;-59
2021/01/06 06:44:51;;;;;;;12.73;9.47;;;;;;;;;;5115090;28;20027;-59
2021/01/06 06:47:31;;;;;;;;;;;;;;;;;;;;;
2021/01/06 06:50:19;;;;;;;12.77;10.30;;;;;;;;;;5013499;28;20030;-59
2021/01/06 06:56:09;;;;;;;8.57;7.67;;;;;;;;;;5072588;28;20095;-59
2021/01/06 06:58:57;;;;;;;15.10;11.23;;;;;;;;;;5072599;28;20037;-59
2021/01/06 07:01:33;;;;;;;15.03;10.87;;;;;;;;;;5072532;28;20016;-59
2021/01/06 07:04:27;;;;;;;12.63;8.97;;;;;;;;;;5071498;28;20087;-59
2021/01/06 07:07:05;;;;;;;;;;;;;;;;;;;;;
2021/01/06 07:10:11;;;;;;;10.70;9.13;;;;;;;;;;5009425;28;20049;-59
2021/01/06 07:13:00;;;;;;;10.63;8.30;;;;;;;;;;4996301;28;20046;-59
2021/01/06 07:16:05;;;;;;;9.07;8.07;;;;;;;;;;5057680;28;20032;-58
2021/01/06 07:22:24;;;;;;;17.47;10.63;;;;;;;;;;5011298;28;20088;-59
2021/01/06 07:25:50;;;;;;;13.87;8.80;;;;;;;;;;5037399;28;20037;-59
2021/01/06 07:28:45;;;;;;;13.67;11.63;;;;;;;;;;5082844;28;20032;-59
2021/01/06 07:31:32;;;;;;;13.33;9.73;;;;;;;;;;5016235;28;20057;-59
2021/01/06 07:40:33;;;;;;;12.30;8.63;;;;;;;;;;5008502;28;20120;-59
2021/01/06 07:43:44;;;;;;;19.38;11.40;;;;;;;;;;5070076;28;20046;-59
2021/01/06 07:46:28;;;;;;;;;;;;;;;;;;;;;
2021/01/06 07:49:04;;;;;;;10.47;9.37;;;;;;;;;;5014854;28;20347;-59
2021/01/06 07:52:02;;;;;;;10.10;8.87;;;;;;;;;;5073016;28;20077;-59
2021/01/06 07:54:58;;;;;;;14.37;9.37;;;;;;;;;;5079065;28;20024;-59
2021/01/06 07:57:54;;;;;;;;;;;;;;;;;;;;;
2021/01/06 08:00:34;;;;;;;11.37;9.47;;;;;;;;;;5013905;28;20362;-58
2021/01/06 08:03:31;;;;;;;10.90;9.57;;;;;;;;;;5081547;28;20485;-58
2021/01/06 08:08:52;;;;;;;14.40;10.90;;;;;;;;;;5104699;28;20036;-59
2021/01/06 08:11:31;;;;;;;21.13;10.68;;;;;;;;;;5118138;28;20024;-60
2021/01/06 08:14:28;;;;;;;17.07;9.07;;;;;;;;;;5118156;28;20086;-60
2021/01/06 08:20:10;;;;;;;14.97;9.97;;;;;;;;;;5113314;28;20116;-60
2021/01/06 08:26:18;;;;;;;11.27;9.40;;;;;;;;;;5014346;28;20037;-60
2021/01/06 08:29:02;;;;;;;11.30;8.90;;;;;;;;;;5096366;28;20085;-60
2021/01/06 08:31:37;;;;;;;10.80;9.67;;;;;;;;;;5098626;28;20492;-60
2021/01/06 08:34:03;;;;;;;13.30;9.67;;;;;;;;;;5088052;28;20078;-60
2021/01/06 08:36:58;;;;;;;11.83;9.40;;;;;;;;;;5098072;28;20423;-60
2021/01/06 08:39:54;;;;;;;;;;;;;;;;;;;;;
2021/01/06 08:42:32;;;;;;;13.45;9.02;;;;;;;;;;5115139;28;20090;-58
2021/01/06 08:45:34;;;;;;;11.93;10.67;;;;;;;;;;5118060;28;20023;-59
2021/01/06 08:48:29;;;;;;;13.20;9.17;;;;;;;;;;5103758;28;20034;-59
2021/01/06 08:51:21;;;;;;;14.07;10.70;;;;;;;;;;5116964;28;20034;-59
2021/01/06 08:54:13;;;;;;;13.40;10.00;;;;;;;;;;5098284;28;20027;-59
2021/01/06 08:57:02;;;;;;;10.70;8.57;;;;;;;;;;5092002;28;20461;-59
2021/01/06 08:59:40;;;;;;;9.80;8.10;;;;;;;;;;5118255;28;20016;-59
2021/01/06 09:02:27;;;;;;;17.93;10.43;;;;;;;;;;5115685;28;20088;-59
2021/01/06 09:08:14;;;;;;;12.07;9.87;;;;;;;;;;5096416;28;20182;-59
2021/01/06 09:14:11;;;;;;;11.63;9.27;;;;;;;;;;5096455;28;20482;-59
2021/01/06 09:17:15;;;;;;;13.50;8.33;;;;;;;;;;5074533;28;20063;-59
2021/01/06 09:22:39;;;;;;;14.93;9.60;;;;;;;;;;5096177;28;20047;-59
2021/01/06 09:25:23;;;;;;;12.77;9.70;;;;;;;;;;5088872;28;20035;-59
2021/01/06 09:28:22;;;;;;;10.93;8.90;;;;;;;;;;5094053;28;20426;-59
2021/01/06 09:30:57;;;;;;;10.37;9.27;;;;;;;;;;5039785;28;20035;-59
2021/01/06 09:33:50;;;;;;;;;;;;;;;;;;;;;
2021/01/06 09:36:29;;;;;;;11.53;8.97;;;;;;;;;;5061652;28;20107;-59
2021/01/06 09:42:06;;;;;;;9.03;7.23;;;;;;;;;;5063830;28;20092;-60
2021/01/06 09:44:47;;;;;;;9.50;7.87;;;;;;;;;;5094374;28;20063;-59
2021/01/06 09:47:19;;;;;;;9.33;7.93;;;;;;;;;;5099024;28;20032;-59
2021/01/06 09:53:04;;;;;;;10.43;8.10;;;;;;;;;;5091765;28;20036;-59
2021/01/06 09:55:50;;;;;;;11.03;8.73;;;;;;;;;;5078922;28;20042;-59
2021/01/06 09:58:50;;;;;;;10.63;7.87;;;;;;;;;;5095586;28;20103;-59
2021/01/06 10:01:38;;;;;;;10.63;8.98;;;;;;;;;;5094165;28;20488;-59
2021/01/06 10:04:40;;;;;;;9.87;7.83;;;;;;;;;;5093459;28;20472;-59
2021/01/06 10:07:13;;;;;;;7.47;6.63;;;;;;;;;;5093590;28;20496;-59
2021/01/06 10:13:26;;;;;;;9.87;7.40;;;;;;;;;;5075847;28;20089;-59
2021/01/06 10:16:10;;;;;;;10.33;7.87;;;;;;;;;;5094163;28;20091;-59
2021/01/06 10:18:54;;;;;;;9.90;7.10;;;;;;;;;;5094312;28;20039;-59
2021/01/06 10:24:57;;;;;;;8.63;7.67;;;;;;;;;;5023269;28;20472;-60
2021/01/06 10:27:36;;;;;;;8.90;6.87;;;;;;;;;;5094585;28;20382;-59
2021/01/06 10:30:34;;;;;;;9.67;6.13;;;;;;;;;;5094392;28;20027;-60
2021/01/06 10:33:22;;;;;;;10.53;7.67;;;;;;;;;;5092049;28;20047;-59
2021/01/06 10:36:14;;;;;;;7.07;6.37;;;;;;;;;;5092314;28;20462;-59
2021/01/06 10:39:11;;;;;;;10.97;7.50;;;;;;;;;;5090884;28;20036;-60
2021/01/06 10:42:10;;;;;;;;;;;;;;;;;;;;;
2021/01/06 10:44:48;;;;;;;7.77;6.33;;;;;;;;;;5012043;28;20425;-59
2021/01/06 10:47:35;;;;;;;8.07;6.90;;;;;;;;;;4979496;28;20551;-59
2021/01/06 10:50:11;;;;;;;8.53;6.30;;;;;;;;;;5078778;28;20469;-59
2021/01/06 10:52:56;;;;;;;10.20;7.20;;;;;;;;;;5094042;28;20063;-59
2021/01/06 10:59:00;;;;;;;;;;;;;;;;;;;;;
2021/01/06 11:01:32;;;;;;;;;;;;;;;;;;5083308;28;20092;-60
2021/01/06 11:04:55;;;;;;;;;;;;;;;;;;;;;
2021/01/06 11:07:24;;;;;;;8.70;7.17;;;;;;;;;;5094647;28;20126;-59
2021/01/06 11:10:11;;;;;;;9.03;6.93;;;;;;;;;;5094125;28;20068;-59
2021/01/06 11:16:12;;;;;;;13.93;8.10;;;;;;;;;;5093833;28;20038;-60
2021/01/06 11:21:42;;;;;;;8.63;7.10;;;;;;;;;;5093082;28;20035;-59
2021/01/06 11:30:29;;;;;;;13.43;10.90;;;;;;;;;;5082372;28;20067;-60
2021/01/06 11:33:31;;;;;;;9.83;6.50;;;;;;;;;;5094027;28;20075;-59
2021/01/06 11:36:16;;;;;;;;;;;;;;;;;;;;;
2021/01/06 11:38:51;;;;;;;8.07;7.27;;;;;;;;;;5089416;28;20333;-59
2021/01/06 11:41:29;;;;;;;8.60;6.63;;;;;;;;;;5093411;28;20106;-60
2021/01/06 11:50:32;;;;;;;13.23;6.93;;;;;;;;;;5086619;28;20370;-60
2021/01/06 11:53:10;;;;;;;8.10;6.85;;;;;;;;;;5092920;28;20117;-60
2021/01/06 11:55:59;;;;;;;8.50;5.87;;;;;;;;;;5094300;28;20509;-60
2021/01/06 11:59:11;;;;;;;;;;;;;;;;;;;;;
2021/01/06 12:02:02;;;;;;;6.63;5.77;;;;;;;;;;5096555;28;20103;-60
2021/01/06 12:04:49;;;;;;;6.57;5.83;;;;;;;;;;5104273;28;20473;-60
2021/01/06 12:07:43;;;;;;;11.87;7.40;;;;;;;;;;5078908;28;20028;-60
2021/01/06 12:10:40;;;;;;;;;;;;;;;;;;;;;
2021/01/06 12:13:06;;;;;;;7.77;6.73;;;;;;;;;;5074090;28;20033;-60
2021/01/06 12:22:25;;;;;;;;;;;;;;;;;;;;;
2021/01/06 12:25:18;;;;;;;8.27;7.23;;;;;;;;;;5072355;28;20478;-60
2021/01/06 12:27:57;;;;;;;9.40;6.50;;;;;;;;;;5048162;28;20079;-59
2021/01/06 12:30:58;;;;;;;;;;;;;;;;;;;;;
2021/01/06 12:33:59;;;;;;;12.67;7.30;;;;;;;;;;5117145;28;20372;-60
2021/01/06 12:36:30;;;;;;;10.73;6.67;;;;;;;;;;5098704;28;20024;-61
2021/01/06 12:39:01;;;;;;;;;;;;;;;;;;5118562;28;20024;-60
2021/01/06 12:42:00;;;;;;;;;;;;;;;;;;5117172;28;19904;-58
2021/01/06 12:44:20;;;;;;;6.67;5.13;;;;;;;;;;5112760;28;20374;-58
2021/01/06 12:46:49;;;;;;;8.73;6.77;;;;;;;;;;5098502;28;20032;-58
2021/01/06 12:49:37;;;;;;;9.53;7.43;;;;;;;;;;5116526;28;20107;-58
2021/01/06 12:52:47;;;;;;;7.60;6.67;;;;;;;;;;5117484;28;20356;-58
2021/01/06 12:55:42;;;;;;;7.97;6.43;;;;;;;;;;5114591;28;20031;-58
2021/01/06 12:58:26;;;;;;;7.33;5.87;;;;;;;;;;5116670;28;20016;-58
2021/01/06 13:01:25;;;;;;;6.30;5.70;;;;;;;;;;5116755;28;20069;-58
2021/01/06 13:04:16;;;;;;;7.57;6.07;;;;;;;;;;5116466;28;20027;-59
2021/01/06 13:07:10;;;;;;;9.30;6.13;;;;;;;;;;5097664;28;20485;-59
2021/01/06 13:10:01;;;;;;;6.50;5.77;;;;;;;;;;5086367;28;20093;-59
2021/01/06 13:12:30;;;;;;;;;;;;;;;;;;5118224;28;20031;-59
2021/01/06 13:15:14;;;;;;;7.50;5.20;;;;;;;;;;5116046;28;19911;-59
2021/01/06 13:17:55;;;;;;;6.23;5.63;;;;;;;;;;5097574;28;20496;-59
2021/01/06 13:24:19;;;;;;;;;;;;;;;;;;;;;
2021/01/06 13:27:04;;;;;;;5.33;4.70;;;;;;;;;;5112878;28;20112;-59
2021/01/06 13:30:18;;;;;;;8.87;6.13;;;;;;;;;;5089452;28;20031;-59
2021/01/06 13:32:50;;;;;;;7.13;4.57;;;;;;;;;;5100955;28;20128;-59
2021/01/06 13:35:27;;;;;;;6.30;5.00;;;;;;;;;;5097693;28;20151;-59
2021/01/06 13:38:21;;;;;;;7.17;5.97;;;;;;;;;;5116332;28;20452;-59
2021/01/06 13:41:15;;;;;;;5.87;4.63;;;;;;;;;;5098567;28;20030;-59
2021/01/06 13:44:00;;;;;;;;;;;;;;;;;;;;;
2021/01/06 13:46:52;;;;;;;6.13;4.07;;;;;;;;;;5116018;28;20418;-59
2021/01/06 13:49:57;;;;;;;5.33;4.83;;;;;;;;;;5116981;28;20046;-59
2021/01/06 13:52:49;;;;;;;5.33;4.70;;;;;;;;;;5101511;28;20106;-59
2021/01/06 14:01:55;;;;;;;6.97;5.10;;;;;;;;;;5023888;28;20034;-60
2021/01/06 14:04:26;;;;;;;7.07;4.40;;;;;;;;;;5094490;28;20111;-60
2021/01/06 14:10:39;;;;;;;5.53;3.87;;;;;;;;;;4955132;29;20047;-60
2021/01/06 14:13:27;;;;;;;;;;;;;;;;;;;;;
2021/01/06 14:16:15;;;;;;;5.07;3.70;;;;;;;;;;5002419;28;20113;-60
2021/01/06 14:19:22;;;;;;;6.87;5.13;;;;;;;;;;5015685;28;20042;-60
2021/01/06 14:22:35;;;;;;;4.47;4.07;;;;;;;;;;4973371;28;20034;-60
2021/01/06 14:28:36;;;;;;;4.87;4.00;;;;;;;;;;4973316;28;20089;-60
2021/01/06 14:31:29;;;;;;;5.67;4.33;;;;;;;;;;4977147;28;20492;-60
2021/01/06 14:34:14;;;;;;;5.63;4.60;;;;;;;;;;5011884;28;20407;-60
2021/01/06 14:37:14;;;;;;;6.33;4.57;;;;;;;;;;5012814;28;20022;-60
2021/01/06 14:40:13;;;;;;;3.50;3.00;;;;;;;;;;5008913;28;20491;-58
2021/01/06 14:42:50;;;;;;;5.97;4.33;;;;;;;;;;5032358;28;20358;-58
2021/01/06 14:45:37;;;;;;;4.80;3.57;;;;;;;;;;5048632;28;20027;-58
2021/01/06 14:48:27;;;;;;;5.90;3.43;;;;;;;;;;5113631;28;20028;-59
2021/01/06 14:51:17;;;;;;;7.85;4.70;;;;;;;;;;5115100;28;20053;-59
2021/01/06 14:54:01;;;;;;;4.20;3.20;;;;;;;;;;5115160;28;20035;-59
2021/01/06 15:00:10;;;;;;;;;;;;;;;;;;;;;
2021/01/06 15:06:04;;;;;;;4.83;3.67;;;;;;;;;;5105216;28;20048;-59
2021/01/06 15:08:46;;;;;;;;;;;;;;;;;;;;;
2021/01/06 15:11:31;;;;;;;5.33;3.50;;;;;;;;;;5115073;28;20329;-59
2021/01/06 15:14:24;;;;;;;5.10;3.67;;;;;;;;;;5113904;28;20024;-59
2021/01/06 15:17:27;;;;;;;4.37;3.97;;;;;;;;;;5114130;28;20024;-59
2021/01/06 15:20:23;;;;;;;4.43;3.37;;;;;;;;;;4995586;28;20042;-59
2021/01/06 15:26:20;;;;;;;8.00;4.55;;;;;;;;;;4998878;28;20108;-59
2021/01/06 15:29:06;;;;;;;3.93;2.63;;;;;;;;;;4989613;28;20499;-58
2021/01/06 15:32:06;;;;;;;3.77;3.20;;;;;;;;;;5054146;28;20381;-59
2021/01/06 15:34:51;;;;;;;7.10;4.07;;;;;;;;;;5104296;28;20457;-59
2021/01/06 15:37:39;;;;;;;10.00;4.67;;;;;;;;;;5100348;28;20473;-59
2021/01/06 15:40:26;;;;;;;8.57;4.43;;;;;;;;;;5118256;28;20076;-59
2021/01/06 15:43:27;;;;;;;4.53;3.83;;;;;;;;;;5118764;28;20038;-59
2021/01/06 15:46:31;;;;;;;4.60;3.55;;;;;;;;;;5014675;28;20539;-59
2021/01/06 15:49:21;;;;;;;5.33;3.97;;;;;;;;;;4993833;28;20034;-59
2021/01/06 15:52:18;;;;;;;4.85;4.25;;;;;;;;;;5119146;28;20019;-59
2021/01/06 15:55:11;;;;;;;4.50;2.90;;;;;;;;;;5119090;28;20023;-59
2021/01/06 15:57:46;;;;;;;5.87;4.37;;;;;;;;;;5118357;28;20024;-59
2021/01/06 16:10:10;;;;;;;6.10;3.97;;;;;;;;;;5118015;28;20026;-59
2021/01/06 16:12:41;;;;;;;4.30;3.17;;;;;;;;;;5099715;28;20477;-59
2021/01/06 16:18:27;;;;;;;4.33;3.93;;;;;;;;;;5035134;28;19905;-59
2021/01/06 16:21:27;;;;;;;4.03;3.60;;;;;;;;;;5118349;28;20016;-59
2021/01/06 16:24:31;;;;;;;5.87;4.73;;;;;;;;;;5099413;28;20031;-59
2021/01/06 16:27:08;;;;;;;10.07;6.43;;;;;;;;;;5015605;28;20033;-59
2021/01/06 16:30:01;;;;;;;4.63;3.70;;;;;;;;;;5000029;28;20038;-59
2021/01/06 16:32:33;;;;;;;5.17;4.27;;;;;;;;;;5015413;28;20046;-59
2021/01/06 16:35:32;;;;;;;7.13;4.87;;;;;;;;;;5061623;28;20044;-58
2021/01/06 16:38:12;;;;;;;6.53;4.73;;;;;;;;;;5014081;28;20042;-59
2021/01/06 16:40:55;;;;;;;6.07;4.97;;;;;;;;;;5044899;28;20046;-59
2021/01/06 16:43:51;;;;;;;6.27;5.03;;;;;;;;;;5094170;28;20103;-58
2021/01/06 16:46:33;;;;;;;6.70;5.07;;;;;;;;;;5082438;28;20031;-59
2021/01/06 16:55:12;;;;;;;7.27;5.17;;;;;;;;;;5117130;28;20039;-59
2021/01/06 16:58:10;;;;;;;5.47;4.20;;;;;;;;;;5116712;28;20059;-59
2021/01/06 17:00:58;;;;;;;7.50;4.67;;;;;;;;;;5116459;28;20053;-59
2021/01/06 17:07:02;;;;;;;;;;;;;;;;;;;;;
2021/01/06 17:09:52;;;;;;;6.10;5.17;;;;;;;;;;5112259;28;20039;-59
2021/01/06 17:12:49;;;;;;;8.20;4.67;;;;;;;;;;5051844;28;20044;-59
2021/01/06 17:15:31;;;;;;;6.77;4.90;;;;;;;;;;5116090;28;20035;-59
2021/01/06 17:18:31;;;;;;;6.40;5.47;;;;;;;;;;5116485;28;20103;-59
2021/01/06 17:21:32;;;;;;;7.23;5.67;;;;;;;;;;5116608;28;20354;-58
2021/01/06 17:24:07;;;;;;;7.82;5.03;;;;;;;;;;5096682;28;20485;-59
2021/01/06 17:30:11;;;;;;;6.53;4.97;;;;;;;;;;5116990;28;20032;-59
2021/01/06 17:32:58;;;;;;;6.85;4.65;;;;;;;;;;5098325;28;20503;-59
2021/01/06 17:35:33;;;;;;;5.17;4.13;;;;;;;;;;5097762;28;20023;-59
2021/01/06 17:38:15;;;;;;;6.27;4.47;;;;;;;;;;5116471;28;20055;-59
2021/01/06 17:41:19;;;;;;;4.97;4.27;;;;;;;;;;5116377;28;20035;-59
2021/01/06 17:44:10;;;;;;;8.47;5.27;;;;;;;;;;5098391;28;20084;-59
2021/01/06 17:46:43;;;;;;;5.83;4.07;;;;;;;;;;5097170;28;20473;-59
2021/01/06 17:49:22;;;;;;;6.27;4.90;;;;;;;;;;5093102;28;20469;-59
2021/01/06 17:52:16;;;;;;;6.70;5.33;;;;;;;;;;5116449;28;20028;-59
2021/01/06 17:54:56;;;;;;;5.77;4.70;;;;;;;;;;5096957;28;20377;-59
2021/01/06 17:57:32;;;;;;;8.80;5.75;;;;;;;;;;5097839;28;20098;-59
2021/01/06 18:00:21;;;;;;;5.83;4.77;;;;;;;;;;5104631;28;20097;-58
2021/01/06 18:03:05;;;;;;;6.47;4.17;;;;;;;;;;5115550;28;20031;-59
2021/01/06 18:05:56;;;;;;;7.37;6.10;;;;;;;;;;5115982;28;20031;-58
2021/01/06 18:08:39;;;;;;;7.35;5.65;;;;;;;;;;5081621;28;20045;-59
2021/01/06 18:11:37;;;;;;;7.03;5.83;;;;;;;;;;5098789;28;20346;-59
2021/01/06 18:14:21;;;;;;;7.80;6.03;;;;;;;;;;5116731;28;20082;-59
2021/01/06 18:17:16;;;;;;;8.53;5.77;;;;;;;;;;5093412;28;20526;-59
2021/01/06 18:20:05;;;;;;;10.07;7.80;;;;;;;;;;5083557;28;20406;-59
2021/01/06 18:22:49;;;;;;;8.53;6.37;;;;;;;;;;5113542;28;20519;-59
2021/01/06 18:28:41;;;;;;;8.73;6.53;;;;;;;;;;5013095;28;20061;-59
2021/01/06 18:31:39;;;;;;;9.63;7.57;;;;;;;;;;4996551;28;20030;-59
2021/01/06 18:37:53;;;;;;;8.67;6.27;;;;;;;;;;5014215;28;20101;-59
2021/01/06 18:43:56;;;;;;;7.00;6.17;;;;;;;;;;5012191;28;20042;-59
2021/01/06 18:46:43;;;;;;;9.30;7.33;;;;;;;;;;4996088;28;20050;-59
2021/01/06 18:55:31;;;;;;;7.28;6.32;;;;;;;;;;5005644;28;20381;-59
2021/01/06 18:58:05;;;;;;;7.73;6.30;;;;;;;;;;5114450;28;20028;-59
2021/01/06 19:00:47;;;;;;;;;;;;;;;;;;;;;
2021/01/06 19:03:20;;;;;;;7.53;6.10;;;;;;;;;;5114623;28;20038;-59
2021/01/06 19:06:12;;;;;;;8.53;5.63;;;;;;;;;;5096328;28;20496;-59
2021/01/06 19:09:14;;;;;;;7.77;5.50;;;;;;;;;;5113747;28;20045;-59
2021/01/06 19:12:00;;;;;;;5.57;4.73;;;;;;;;;;5079480;28;20545;-59
2021/01/06 19:14:29;;;;;;;6.00;4.37;;;;;;;;;;5113949;28;20124;-59
2021/01/06 19:17:02;;;;;;;6.43;4.33;;;;;;;;;;5114565;28;20069;-59
2021/01/06 19:19:34;;;;;;;5.87;3.90;;;;;;;;;;5113507;28;20080;-59
2021/01/06 19:22:37;;;;;;;6.30;4.37;;;;;;;;;;5115167;28;20449;-59
2021/01/06 19:25:39;;;;;;;;;;;;;;;;;;;;;
2021/01/06 19:31:18;;;;;;;;;;;;;;;;;;;;;
2021/01/06 19:34:02;;;;;;;7.77;4.13;;;;;;;;;;5069490;28;20046;-59
2021/01/06 19:37:19;;;;;;;6.40;4.40;;;;;;;;;;5114203;28;20051;-59
2021/01/06 19:40:12;;;;;;;6.77;4.33;;;;;;;;;;5113822;28;20043;-59
2021/01/06 19:43:04;;;;;;;6.80;3.67;;;;;;;;;;5112900;28;20495;-59
2021/01/06 19:46:22;;;;;;;;;;;;;;;;;;;;;
2021/01/06 19:48:49;;;;;;;;;;;;;;;;;;;;;
2021/01/06 19:51:17;;;;;;;8.10;5.30;;;;;;;;;;5056677;28;20037;-59
2021/01/06 19:53:45;;;;;;;5.57;4.70;;;;;;;;;;5068701;28;20036;-59
2021/01/06 20:02:43;;;;;;;6.70;6.00;;;;;;;;;;5071929;28;20456;-59
2021/01/06 20:05:33;;;;;;;7.07;5.40;;;;;;;;;;5054686;28;20060;-59
2021/01/06 20:08:09;;;;;;;9.93;5.93;;;;;;;;;;5071096;28;20098;-59
2021/01/06 20:10:47;;;;;;;10.63;8.30;;;;;;;;;;5071547;28;20039;-59
2021/01/06 20:13:50;;;;;;;8.97;7.23;;;;;;;;;;5071820;28;20033;-59
2021/01/06 20:16:38;;;;;;;;;;;;;;;;;;;;;
2021/01/06 20:19:06;;;;;;;9.20;7.03;;;;;;;;;;5077422;28;20444;-59
2021/01/06 20:21:44;;;;;;;13.00;7.37;;;;;;;;;;5117525;28;20027;-59
2021/01/06 20:24:15;;;;;;;10.00;7.13;;;;;;;;;;5099166;28;20074;-59
2021/01/06 20:29:36;;;;;;;8.23;7.37;;;;;;;;;;5104238;28;20093;-59
2021/01/06 20:32:26;;;;;;;10.03;7.10;;;;;;;;;;5117882;28;20487;-59
2021/01/06 20:35:10;;;;;;;11.10;7.93;;;;;;;;;;5099686;28;20028;-59
2021/01/06 20:37:37;;;;;;;8.97;8.07;;;;;;;;;;5116475;28;20027;-59
2021/01/06 20:43:26;;;;;;;;;;;;;;;;;;;;;
2021/01/06 20:46:18;;;;;;;9.37;7.43;;;;;;;;;;5110758;28;20122;-59
2021/01/06 20:49:15;;;;;;;12.30;7.17;;;;;;;;;;5097506;28;20059;-59
2021/01/06 20:51:57;;;;;;;11.03;7.93;;;;;;;;;;5098870;28;20027;-58
2021/01/06 20:54:57;;;;;;;10.80;9.50;;;;;;;;;;5119259;28;20369;-59